Time;durP1;ratioP1;P1;durP2;ratioP2;P2;SDS_P1;SDS_P2;PMS_P1;PMS_P2;Temp;Humidity;BMP_temperature;BMP_pressure;BME280_temperature;BME280_humidity;BME280_pressure;Samples;Min_cycle;Max_cycle;Signal;HPM_P1;HPM_P2
2024/03/16 00:01:28;;;;;;;13.73;6.55;;;9.90;100.00;;;;;;5009806;28;20504;-72
2024/03/16 00:03:55;;;;;;;12.90;6.57;;;10.00;100.00;;;;;;4996656;28;20041;-72
2024/03/16 00:06:22;;;;;;;17.00;7.30;;;10.00;100.00;;;;;;5000804;28;20205;-72
2024/03/16 00:08:49;;;;;;;18.83;7.25;;;10.00;100.00;;;;;;5001153;28;20387;-71
2024/03/16 00:11:16;;;;;;;17.30;7.22;;;10.00;100.00;;;;;;5001421;28;20454;-72
2024/03/16 00:13:42;;;;;;;15.70;7.90;;;10.00;100.00;;;;;;5000456;28;20058;-72
2024/03/16 00:16:09;;;;;;;20.10;7.70;;;10.00;100.00;;;;;;5002807;28;20093;-72
2024/03/16 00:18:36;;;;;;;18.50;7.47;;;10.10;100.00;;;;;;5003305;28;20056;-72
2024/03/16 00:21:04;;;;;;;22.45;7.72;;;10.10;100.00;;;;;;5001649;28;20430;-72
2024/03/16 00:23:30;;;;;;;16.25;7.28;;;10.10;100.00;;;;;;5001876;28;20069;-72
2024/03/16 00:25:57;;;;;;;15.98;7.35;;;10.10;100.00;;;;;;5003131;28;20446;-72
2024/03/16 00:28:24;;;;;;;16.33;8.02;;;10.00;100.00;;;;;;5002840;28;20109;-72
2024/03/16 00:30:51;;;;;;;20.33;7.35;;;10.00;100.00;;;;;;5002591;28;20058;-72
2024/03/16 00:33:18;;;;;;;20.13;7.85;;;10.00;100.00;;;;;;4997897;28;20460;-72
2024/03/16 00:35:44;;;;;;;13.60;7.20;;;10.00;100.00;;;;;;5000786;28;20109;-72
2024/03/16 00:38:11;;;;;;;18.02;7.13;;;10.00;100.00;;;;;;5000950;28;21119;-72
2024/03/16 00:40:38;;;;;;;17.92;7.30;;;10.00;100.00;;;;;;5003489;28;20152;-72
2024/03/16 00:43:05;;;;;;;16.30;6.97;;;10.00;100.00;;;;;;5002106;28;20113;-72
2024/03/16 00:45:32;;;;;;;16.70;7.38;;;10.00;100.00;;;;;;4998228;28;20470;-72
2024/03/16 00:48:00;;;;;;;22.35;8.18;;;10.00;100.00;;;;;;5001761;28;20053;-72
2024/03/16 00:50:27;;;;;;;19.80;7.20;;;10.00;100.00;;;;;;5002797;28;20486;-72
2024/03/16 00:52:54;;;;;;;16.83;8.15;;;10.00;100.00;;;;;;5004282;28;20046;-72
2024/03/16 00:55:20;;;;;;;19.42;7.82;;;10.00;100.00;;;;;;4998136;28;20045;-72
2024/03/16 00:57:47;;;;;;;16.23;7.43;;;10.00;100.00;;;;;;5006191;28;20050;-72
2024/03/16 01:00:14;;;;;;;19.85;7.72;;;10.00;100.00;;;;;;5006248;28;20427;-72
2024/03/16 01:02:42;;;;;;;18.13;8.50;;;10.00;100.00;;;;;;5003941;28;20165;-72
2024/03/16 01:05:09;;;;;;;24.25;8.40;;;10.00;100.00;;;;;;5004473;28;20053;-72
2024/03/16 01:07:36;;;;;;;21.08;9.05;;;10.00;100.00;;;;;;5006424;28;20054;-72
2024/03/16 01:10:03;;;;;;;19.88;7.85;;;10.00;100.00;;;;;;5006460;28;20108;-71
2024/03/16 01:12:30;;;;;;;23.10;9.35;;;10.00;100.00;;;;;;5003274;28;20045;-72
2024/03/16 01:14:57;;;;;;;21.17;9.02;;;10.00;100.00;;;;;;5005353;28;20052;-72
2024/03/16 01:17:24;;;;;;;19.00;7.88;;;10.00;100.00;;;;;;5005099;28;20363;-72
2024/03/16 01:19:51;;;;;;;18.63;8.05;;;9.90;100.00;;;;;;5005941;28;20230;-72
2024/03/16 01:22:17;;;;;;;19.60;8.38;;;9.90;100.00;;;;;;5005773;28;20128;-72
2024/03/16 01:24:44;;;;;;;22.38;8.27;;;9.90;100.00;;;;;;5004314;28;20086;-72
2024/03/16 01:27:11;;;;;;;21.38;9.52;;;9.90;100.00;;;;;;5004578;28;20061;-72
2024/03/16 01:29:38;;;;;;;22.08;9.70;;;9.90;100.00;;;;;;5005181;28;20054;-72
2024/03/16 01:32:08;;;;;;;24.17;8.88;;;9.80;100.00;;;;;;5004008;28;20064;-72
2024/03/16 01:34:35;;;;;;;27.77;9.07;;;9.80;100.00;;;;;;5004502;28;20058;-72
2024/03/16 01:37:02;;;;;;;23.55;9.93;;;9.70;100.00;;;;;;5005080;28;20516;-72
2024/03/16 01:39:29;;;;;;;22.90;8.93;;;9.70;100.00;;;;;;5001969;28;20081;-72
2024/03/16 01:41:57;;;;;;;23.17;8.75;;;9.60;100.00;;;;;;5004982;28;20076;-72
2024/03/16 01:44:24;;;;;;;22.75;9.57;;;9.50;100.00;;;;;;5005132;28;20052;-71
2024/03/16 01:46:51;;;;;;;25.42;10.07;;;9.50;100.00;;;;;;5005663;28;20135;-72
2024/03/16 01:49:18;;;;;;;21.73;9.48;;;9.40;100.00;;;;;;4997197;28;20479;-72
2024/03/16 01:51:45;;;;;;;29.67;10.48;;;9.30;100.00;;;;;;5004883;28;20152;-72
2024/03/16 01:54:12;;;;;;;29.55;10.48;;;9.30;100.00;;;;;;5003028;28;20064;-71
2024/03/16 01:56:39;;;;;;;30.45;11.63;;;9.30;100.00;;;;;;5005279;28;20495;-72
2024/03/16 01:59:06;;;;;;;27.05;10.27;;;9.30;100.00;;;;;;5004525;28;20406;-72
2024/03/16 02:01:33;;;;;;;27.25;11.18;;;9.20;100.00;;;;;;5000221;28;20439;-72
2024/03/16 02:04:00;;;;;;;25.95;10.13;;;9.20;100.00;;;;;;5003080;28;20045;-72
2024/03/16 02:06:28;;;;;;;32.42;11.45;;;9.20;100.00;;;;;;5005116;28;20116;-72
2024/03/16 02:08:55;;;;;;;29.70;11.65;;;9.30;100.00;;;;;;5004814;28;20068;-72
2024/03/16 02:11:22;;;;;;;28.60;10.65;;;9.30;100.00;;;;;;5003450;28;20140;-72
2024/03/16 02:13:49;;;;;;;26.95;11.25;;;9.30;100.00;;;;;;5004234;28;20088;-72
2024/03/16 02:16:17;;;;;;;31.52;12.00;;;9.30;100.00;;;;;;5004647;28;20057;-72
2024/03/16 02:18:44;;;;;;;28.20;10.68;;;9.30;100.00;;;;;;5002057;28;20056;-72
2024/03/16 02:21:11;;;;;;;28.58;12.10;;;9.30;100.00;;;;;;5004042;28;20053;-72
2024/03/16 02:23:39;;;;;;;36.17;12.10;;;9.30;100.00;;;;;;5004485;28;20444;-72
2024/03/16 02:26:11;;;;;;;30.05;12.02;;;9.30;100.00;;;;;;5005977;28;20054;-72
2024/03/16 02:28:37;;;;;;;31.75;12.80;;;9.30;100.00;;;;;;5006925;28;20124;-72
2024/03/16 02:31:05;;;;;;;37.00;12.90;;;9.30;100.00;;;;;;5004416;28;20279;-72
2024/03/16 02:33:32;;;;;;;36.60;12.73;;;9.20;100.00;;;;;;5006664;28;20049;-72
2024/03/16 02:35:59;;;;;;;28.23;12.10;;;9.20;100.00;;;;;;5006404;28;20050;-72
2024/03/16 02:38:25;;;;;;;30.25;12.65;;;9.20;100.00;;;;;;5006320;28;20136;-72
2024/03/16 02:40:52;;;;;;;37.65;12.02;;;9.20;100.00;;;;;;5007446;28;20058;-72
2024/03/16 02:43:19;;;;;;;30.98;12.52;;;9.20;100.00;;;;;;5003706;28;20049;-72
2024/03/16 02:45:46;;;;;;;33.90;12.15;;;9.10;100.00;;;;;;5003569;28;20049;-72
2024/03/16 02:48:13;;;;;;;39.67;13.60;;;9.20;100.00;;;;;;5004582;28;20430;-72
2024/03/16 02:50:40;;;;;;;40.05;13.93;;;9.10;100.00;;;;;;5003799;28;20054;-72
2024/03/16 02:53:08;;;;;;;39.90;14.13;;;9.10;100.00;;;;;;5004219;28;20132;-72
2024/03/16 02:55:36;;;;;;;40.13;14.75;;;9.20;100.00;;;;;;5002705;28;20049;-72
2024/03/16 02:58:03;;;;;;;41.38;14.70;;;9.10;100.00;;;;;;5003675;28;20089;-72
2024/03/16 03:00:30;;;;;;;36.67;14.02;;;9.10;100.00;;;;;;5002515;28;20065;-72
2024/03/16 03:02:57;;;;;;;37.72;14.30;;;9.10;100.00;;;;;;5003709;28;20052;-72
2024/03/16 03:05:24;;;;;;;41.55;15.80;;;9.10;100.00;;;;;;5004617;28;20050;-72
2024/03/16 03:07:50;;;;;;;49.40;16.10;;;9.10;100.00;;;;;;5004220;28;20367;-72
2024/03/16 03:10:17;;;;;;;40.05;14.63;;;9.10;100.00;;;;;;5003674;28;20489;-72
2024/03/16 03:12:44;;;;;;;43.17;14.63;;;9.10;100.00;;;;;;5002585;28;20074;-72
2024/03/16 03:15:11;;;;;;;42.08;15.10;;;9.10;100.00;;;;;;5004107;28;20050;-72
2024/03/16 03:17:38;;;;;;;51.30;16.70;;;9.10;100.00;;;;;;5003949;28;20054;-72
2024/03/16 03:20:08;;;;;;;42.42;16.23;;;9.20;100.00;;;;;;5003689;28;20188;-72
2024/03/16 03:22:36;;;;;;;38.35;14.82;;;9.20;100.00;;;;;;4998330;28;20050;-72
2024/03/16 03:25:03;;;;;;;46.65;16.83;;;9.20;100.00;;;;;;5000559;28;20189;-72
2024/03/16 03:27:30;;;;;;;46.53;15.75;;;9.20;100.00;;;;;;5006177;28;20449;-72
2024/03/16 03:29:57;;;;;;;54.35;16.42;;;9.20;100.00;;;;;;5007337;28;20060;-72
2024/03/16 03:32:24;;;;;;;53.33;16.48;;;9.30;100.00;;;;;;5007674;28;20418;-72
2024/03/16 03:34:51;;;;;;;46.25;16.33;;;9.30;100.00;;;;;;5006920;28;20114;-72
2024/03/16 03:37:18;;;;;;;49.40;16.77;;;9.30;100.00;;;;;;4997633;28;20751;-72
2024/03/16 03:39:46;;;;;;;60.88;18.92;;;9.30;100.00;;;;;;5002506;28;20151;-72
2024/03/16 03:42:14;;;;;;;46.95;17.55;;;9.40;100.00;;;;;;5006599;28;20057;-72
2024/03/16 03:44:50;;;;;;;58.05;18.90;;;9.40;100.00;;;;;;5005176;28;20080;-72
2024/03/16 03:47:17;;;;;;;47.28;17.02;;;9.40;100.00;;;;;;5005149;28;20054;-72
2024/03/16 03:49:50;;;;;;;48.47;17.98;;;9.40;100.00;;;;;;5007017;28;20057;-72
2024/03/16 03:52:17;;;;;;;51.13;18.13;;;9.40;100.00;;;;;;5006126;28;20131;-72
2024/03/16 03:54:45;;;;;;;53.78;17.77;;;9.40;100.00;;;;;;5004420;28;20560;-72
2024/03/16 03:57:12;;;;;;;55.63;17.30;;;9.40;100.00;;;;;;5004423;28;20710;-72
2024/03/16 03:59:38;;;;;;;51.20;18.55;;;9.40;100.00;;;;;;5005251;28;20046;-72
2024/03/16 04:02:05;;;;;;;52.67;18.67;;;9.50;100.00;;;;;;5001491;28;20058;-71
2024/03/16 04:04:32;;;;;;;55.78;19.45;;;9.50;100.00;;;;;;4997053;28;20062;-72
2024/03/16 04:06:59;;;;;;;56.05;20.20;;;9.50;100.00;;;;;;4997709;28;20108;-72
2024/03/16 04:09:26;;;;;;;60.95;18.50;;;9.50;100.00;;;;;;4998600;28;20065;-72
2024/03/16 04:11:53;;;;;;;53.80;18.88;;;9.50;100.00;;;;;;4997445;28;20053;-72
2024/03/16 04:14:20;;;;;;;45.80;17.52;;;9.50;100.00;;;;;;4996821;28;20045;-72
2024/03/16 04:16:48;;;;;;;58.65;19.33;;;9.50;100.00;;;;;;4996981;28;20104;-72
2024/03/16 04:19:16;;;;;;;56.70;19.20;;;9.50;100.00;;;;;;4999445;28;20053;-72
2024/03/16 04:21:43;;;;;;;51.33;19.75;;;9.50;100.00;;;;;;4991960;28;20120;-72
2024/03/16 04:24:10;;;;;;;55.33;18.77;;;9.50;100.00;;;;;;4994519;28;20046;-72
2024/03/16 04:26:37;;;;;;;60.10;18.98;;;9.50;100.00;;;;;;4992956;28;20054;-72
2024/03/16 04:29:05;;;;;;;60.92;20.52;;;9.50;100.00;;;;;;4998201;28;20725;-72
2024/03/16 04:31:32;;;;;;;53.20;19.63;;;9.50;100.00;;;;;;4996663;28;20514;-72
2024/03/16 04:34:00;;;;;;;63.15;21.02;;;9.40;100.00;;;;;;5001607;28;20061;-72
2024/03/16 04:36:27;;;;;;;55.25;19.45;;;9.50;100.00;;;;;;4999068;28;20506;-72
2024/03/16 04:38:54;;;;;;;57.88;19.90;;;9.40;100.00;;;;;;4997849;28;20050;-72
2024/03/16 04:41:21;;;;;;;51.50;18.98;;;9.40;100.00;;;;;;5000518;28;20053;-72
2024/03/16 04:43:48;;;;;;;64.20;19.85;;;9.50;100.00;;;;;;5000706;28;20050;-73
2024/03/16 04:46:14;;;;;;;58.85;21.15;;;9.40;100.00;;;;;;5001381;28;20049;-72
2024/03/16 04:48:41;;;;;;;55.83;20.48;;;9.40;100.00;;;;;;5002920;28;20065;-73
2024/03/16 04:51:08;;;;;;;56.38;20.27;;;9.30;100.00;;;;;;4999939;28;20482;-73
2024/03/16 04:53:35;;;;;;;60.55;19.83;;;9.30;100.00;;;;;;4997212;28;20136;-73
2024/03/16 04:56:02;;;;;;;52.63;18.88;;;9.30;100.00;;;;;;4998907;28;20530;-72
2024/03/16 04:58:29;;;;;;;61.65;21.65;;;9.20;100.00;;;;;;5001711;28;20049;-72
2024/03/16 05:00:58;;;;;;;58.53;20.13;;;9.20;100.00;;;;;;4997890;28;20093;-72
2024/03/16 05:03:25;;;;;;;64.72;21.17;;;9.20;100.00;;;;;;5000224;28;20100;-72
2024/03/16 05:05:52;;;;;;;57.17;20.83;;;9.20;100.00;;;;;;4999421;28;20060;-72
2024/03/16 05:08:18;;;;;;;61.00;22.13;;;9.20;100.00;;;;;;4999591;28;20112;-72
2024/03/16 05:10:51;;;;;;;60.17;23.23;;;9.20;100.00;;;;;;4997380;28;20054;-71
2024/03/16 05:13:18;;;;;;;61.80;21.75;;;9.20;100.00;;;;;;5001590;28;20116;-72
2024/03/16 05:15:46;;;;;;;68.50;23.23;;;9.30;100.00;;;;;;5001302;28;20051;-72
2024/03/16 05:18:14;;;;;;;63.17;21.95;;;9.30;100.00;;;;;;5000418;28;20069;-72
2024/03/16 05:20:41;;;;;;;67.55;22.25;;;9.30;100.00;;;;;;5000338;28;20070;-72
2024/03/16 05:23:08;;;;;;;60.90;22.38;;;9.30;100.00;;;;;;4999754;28;20105;-72
2024/03/16 05:25:35;;;;;;;62.72;22.00;;;9.30;100.00;;;;;;4999911;28;20112;-72
2024/03/16 05:28:02;;;;;;;64.97;22.98;;;9.30;100.00;;;;;;4999222;28;20050;-72
2024/03/16 05:30:29;;;;;;;78.78;22.27;;;9.30;100.00;;;;;;5000958;28;20057;-72
2024/03/16 05:32:55;;;;;;;69.30;23.13;;;9.40;100.00;;;;;;4999795;28;20061;-72
2024/03/16 05:35:28;;;;;;;62.10;22.25;;;9.40;100.00;;;;;;5000455;28;20054;-72
2024/03/16 05:37:55;;;;;;;64.65;23.80;;;9.40;100.00;;;;;;4995642;28;20049;-73
2024/03/16 05:40:22;;;;;;;65.40;23.85;;;9.40;100.00;;;;;;4997782;28;20054;-73
2024/03/16 05:42:49;;;;;;;65.70;24.38;;;9.50;100.00;;;;;;5000657;28;20056;-72
2024/03/16 05:45:16;;;;;;;64.63;22.80;;;9.40;100.00;;;;;;4996225;28;20103;-72
2024/03/16 05:47:43;;;;;;;61.53;22.00;;;9.50;100.00;;;;;;4998754;28;20050;-73
2024/03/16 05:50:10;;;;;;;68.45;22.88;;;9.50;100.00;;;;;;5003777;28;20108;-73
2024/03/16 05:52:37;;;;;;;67.25;21.45;;;9.50;100.00;;;;;;5189916;23;20050;-73
2024/03/16 05:55:05;;;;;;;57.30;20.60;;;9.60;100.00;;;;;;4973392;28;20046;-73
2024/03/16 05:57:31;;;;;;;58.47;21.10;;;9.60;100.00;;;;;;4972162;28;20450;-73
2024/03/16 05:59:58;;;;;;;60.65;22.70;;;9.60;100.00;;;;;;4973923;28;20297;-73
2024/03/16 06:02:25;;;;;;;74.93;24.10;;;9.60;100.00;;;;;;4973108;28;20162;-73
2024/03/16 06:04:52;;;;;;;63.90;21.10;;;9.70;100.00;;;;;;4974313;28;20078;-73
2024/03/16 06:07:20;;;;;;;63.13;21.75;;;9.70;100.00;;;;;;4973454;28;20432;-73
2024/03/16 06:09:47;;;;;;;58.78;22.90;;;9.70;100.00;;;;;;4973284;28;20078;-74
2024/03/16 06:12:14;;;;;;;65.00;21.67;;;9.70;100.00;;;;;;4974159;28;20495;-74
2024/03/16 06:14:41;;;;;;;59.45;22.25;;;9.80;100.00;;;;;;4971969;28;20135;-74
2024/03/16 06:17:08;;;;;;;59.80;21.48;;;9.80;100.00;;;;;;4972068;28;20078;-73
2024/03/16 06:19:34;;;;;;;53.90;21.20;;;9.90;100.00;;;;;;4972817;28;20129;-73
2024/03/16 06:22:02;;;;;;;61.15;22.95;;;9.90;100.00;;;;;;4974671;28;20341;-73
2024/03/16 06:24:31;;;;;;;62.08;22.13;;;9.90;100.00;;;;;;4971051;28;20043;-73
2024/03/16 06:27:04;;;;;;;60.40;21.58;;;10.00;100.00;;;;;;4969622;28;20283;-74
2024/03/16 06:29:32;;;;;;;57.80;22.15;;;10.00;100.00;;;;;;4971551;28;20073;-74
2024/03/16 06:32:05;;;;;;;67.03;20.75;;;10.00;100.00;;;;;;4968079;28;20054;-73
2024/03/16 06:34:35;;;;;;;54.25;20.45;;;10.00;100.00;;;;;;4969714;28;20101;-76
2024/03/16 06:37:03;;;;;;;54.28;19.95;;;10.00;100.00;;;;;;4969699;28;20046;-75
2024/03/16 06:39:30;;;;;;;55.95;19.85;;;10.10;100.00;;;;;;4970727;28;20548;-75
2024/03/16 06:41:57;;;;;;;62.78;20.27;;;10.10;100.00;;;;;;4966620;28;20543;-75
2024/03/16 06:44:24;;;;;;;51.83;19.55;;;10.10;100.00;;;;;;4968275;28;20574;-76
2024/03/16 06:46:50;;;;;;;53.90;19.75;;;10.20;100.00;;;;;;4969310;28;20125;-80
2024/03/16 06:49:18;;;;;;;68.28;20.65;;;10.30;100.00;;;;;;4975065;28;20101;-76
2024/03/16 06:51:45;;;;;;;63.13;22.40;;;10.40;100.00;;;;;;4974127;28;20125;-76
2024/03/16 06:54:15;;;;;;;194.55;31.88;;;10.40;100.00;;;;;;4970227;28;20051;-75
2024/03/16 06:56:42;;;;;;;76.32;21.48;;;10.40;100.00;;;;;;4974435;28;20046;-76
2024/03/16 06:59:09;;;;;;;49.70;18.67;;;10.40;100.00;;;;;;4971322;28;20059;-75
2024/03/16 07:01:35;;;;;;;50.65;18.63;;;10.50;100.00;;;;;;4973811;28;20070;-75
2024/03/16 07:04:02;;;;;;;161.48;31.40;;;10.50;100.00;;;;;;4970849;28;20051;-75
2024/03/16 07:06:30;;;;;;;53.50;17.60;;;10.60;100.00;;;;;;4973333;28;20046;-75
2024/03/16 07:09:00;;;;;;;59.53;18.92;;;10.70;100.00;;;;;;4970111;28;21123;-77
2024/03/16 07:11:29;;;;;;;49.85;19.00;;;10.80;100.00;;;;;;4971217;28;20050;-78
2024/03/16 07:13:57;;;;;;;51.08;19.00;;;10.80;100.00;;;;;;4973220;28;20054;-80
2024/03/16 07:16:25;;;;;;;42.72;18.70;;;10.80;100.00;;;;;;4973145;28;20065;-78
2024/03/16 07:18:52;;;;;;;47.75;17.83;;;10.90;100.00;;;;;;4968829;28;20089;-80
2024/03/16 07:21:21;;;;;;;45.80;17.67;;;10.90;100.00;;;;;;4970743;28;20051;-81
2024/03/16 07:23:50;;;;;;;46.97;17.65;;;11.00;100.00;;;;;;4972863;28;20045;-80
2024/03/16 07:26:17;;;;;;;45.55;16.58;;;11.00;100.00;;;;;;4977574;28;20051;-79
2024/03/16 07:28:44;;;;;;;38.35;15.85;;;11.10;100.00;;;;;;4973265;28;20078;-79
2024/03/16 07:31:12;;;;;;;43.45;16.60;;;11.10;100.00;;;;;;4974580;28;20051;-73
2024/03/16 07:33:39;;;;;;;50.50;16.88;;;11.10;100.00;;;;;;4969386;28;20642;-73
2024/03/16 07:36:06;;;;;;;47.88;15.65;;;11.10;100.00;;;;;;4974453;28;20046;-74
2024/03/16 07:38:33;;;;;;;46.30;16.50;;;11.20;100.00;;;;;;4971163;28;20050;-73
2024/03/16 07:41:00;;;;;;;36.28;14.40;;;11.10;100.00;;;;;;4971669;28;20720;-71
2024/03/16 07:43:27;;;;;;;42.92;14.93;;;11.00;100.00;;;;;;4969609;28;20046;-72
2024/03/16 07:45:53;;;;;;;39.65;15.13;;;10.90;100.00;;;;;;4974159;28;20101;-72
2024/03/16 07:48:22;;;;;;;46.75;16.33;;;10.80;100.00;;;;;;4970098;28;20177;-72
2024/03/16 07:50:57;;;;;;;50.20;17.42;;;10.70;100.00;;;;;;4971079;28;20130;-71
2024/03/16 07:53:24;;;;;;;45.83;14.45;;;10.60;100.00;;;;;;4971431;28;20051;-71
2024/03/16 07:55:54;;;;;;;47.95;15.27;;;10.50;100.00;;;;;;4971177;28;20086;-72
2024/03/16 07:58:21;;;;;;;43.50;15.43;;;10.40;100.00;;;;;;4972326;28;20043;-71
2024/03/16 08:00:47;;;;;;;27.85;11.10;;;10.20;100.00;;;;;;4970915;28;20046;-71
2024/03/16 08:03:15;;;;;;;26.85;12.30;;;10.10;100.00;;;;;;4972668;28;20047;-71
2024/03/16 08:05:41;;;;;;;23.52;8.55;;;10.00;100.00;;;;;;4975480;28;20150;-71
2024/03/16 08:08:08;;;;;;;9.70;4.20;;;9.80;100.00;;;;;;4973309;28;20440;-71
2024/03/16 08:10:35;;;;;;;14.73;3.80;;;9.60;100.00;;;;;;4976098;28;20090;-71
2024/03/16 08:13:02;;;;;;;4.20;2.00;;;9.50;100.00;;;;;;4974780;28;20054;-71
2024/03/16 08:15:29;;;;;;;7.65;2.00;;;9.30;100.00;;;;;;4972561;28;20226;-71
2024/03/16 08:18:00;;;;;;;4.10;2.20;;;9.20;100.00;;;;;;4973842;28;20120;-71
2024/03/16 08:20:27;;;;;;;4.07;1.38;;;9.10;100.00;;;;;;4975258;28;20055;-71
2024/03/16 08:22:54;;;;;;;3.72;1.38;;;9.00;100.00;;;;;;4973400;28;20046;-71
2024/03/16 08:25:22;;;;;;;6.70;1.60;;;8.90;100.00;;;;;;4973638;28;20050;-71
2024/03/16 08:27:49;;;;;;;8.07;1.38;;;8.70;100.00;;;;;;4973938;28;20133;-71
2024/03/16 08:30:16;;;;;;;5.35;1.40;;;8.60;100.00;;;;;;4973199;28;20137;-71
2024/03/16 08:32:42;;;;;;;6.07;1.60;;;8.60;100.00;;;;;;4975442;28;20133;-71
2024/03/16 08:35:09;;;;;;;5.78;2.08;;;8.50;100.00;;;;;;4971760;28;20571;-71
2024/03/16 08:37:36;;;;;;;7.70;1.98;;;8.50;100.00;;;;;;4973723;28;20054;-72
2024/03/16 08:40:11;;;;;;;5.50;2.05;;;8.40;100.00;;;;;;4974792;28;20102;-72
2024/03/16 08:42:40;;;;;;;5.97;2.03;;;8.50;100.00;;;;;;4972146;28;20070;-74
2024/03/16 08:45:08;;;;;;;4.15;2.00;;;8.50;100.00;;;;;;4970491;28;20997;-73
2024/03/16 08:47:34;;;;;;;8.57;2.58;;;8.50;100.00;;;;;;4970707;28;20716;-72
2024/03/16 08:50:01;;;;;;;4.47;2.50;;;8.60;100.00;;;;;;4972304;28;20475;-72
2024/03/16 08:52:28;;;;;;;10.35;3.03;;;8.60;100.00;;;;;;4970685;28;20046;-72
2024/03/16 08:54:55;;;;;;;9.02;3.58;;;8.60;100.00;;;;;;4973938;28;20050;-73
2024/03/16 08:57:23;;;;;;;7.07;2.90;;;8.60;100.00;;;;;;4973484;28;20043;-73
2024/03/16 08:59:51;;;;;;;12.75;3.42;;;8.50;100.00;;;;;;4980491;28;20046;-72
2024/03/16 09:02:24;;;;;;;12.77;2.88;;;8.00;100.00;;;;;;4976634;28;20051;-72
2024/03/16 09:04:51;;;;;;;11.65;2.50;;;7.80;100.00;;;;;;4979040;28;20057;-73
2024/03/16 09:07:19;;;;;;;13.05;2.45;;;7.60;100.00;;;;;;4977046;28;20141;-73
2024/03/16 09:09:46;;;;;;;17.67;3.08;;;7.50;100.00;;;;;;4974888;28;20431;-73
2024/03/16 09:12:16;;;;;;;23.67;3.67;;;7.40;100.00;;;;;;4974083;28;20066;-72
2024/03/16 09:14:43;;;;;;;14.68;2.55;;;7.40;100.00;;;;;;4977255;28;20127;-75
2024/03/16 09:17:10;;;;;;;9.40;2.42;;;7.40;100.00;;;;;;4971877;28;20077;-76
2024/03/16 09:19:37;;;;;;;7.30;2.28;;;7.30;100.00;;;;;;4970672;28;20046;-74
2024/03/16 09:22:03;;;;;;;9.63;2.92;;;7.20;100.00;;;;;;4970914;28;20116;-74
2024/03/16 09:24:31;;;;;;;15.05;2.40;;;;;;;;;;4973312;28;20836;-75
2024/03/16 09:26:58;;;;;;;12.18;2.97;;;;;;;;;;4974479;28;20048;-74
2024/03/16 09:29:54;;;;;;;16.20;2.40;;;;;;;;;;4973951;28;20066;-74
2024/03/16 09:32:21;;;;;;;13.45;2.50;;;;;;;;;;4972379;28;20194;-69
2024/03/16 09:34:51;;;;;;;11.90;2.45;;;;;;;;;;4969784;28;20058;-69
2024/03/16 09:37:18;;;;;;;14.30;2.40;;;;;;;;;;4972231;28;20055;-69
2024/03/16 09:39:45;;;;;;;16.45;2.60;;;;;;;;;;4971644;28;20051;-69
2024/03/16 09:42:13;;;;;;;17.50;2.67;;;;;;;;;;4970566;28;20082;-69
2024/03/16 09:44:41;;;;;;;21.33;3.00;;;-15.40;100.00;;;;;;4968958;28;20049;-69
2024/03/16 09:47:14;;;;;;;17.52;2.78;;;;;;;;;;4952812;28;20047;-69
2024/03/16 09:49:43;;;;;;;27.77;3.67;;;;;;;;;;4969454;28;20140;-70
2024/03/16 09:52:16;;;;;;;18.33;2.80;;;;;;;;;;4968102;28;20058;-70
2024/03/16 09:54:42;;;;;;;25.42;3.65;;;;;;;;;;4969881;28;20671;-70
2024/03/16 09:57:15;;;;;;;12.15;2.67;;;;;;;;;;4951339;28;20698;-70
2024/03/16 09:59:48;;;;;;;12.43;2.35;;;;;;;;;;4952548;28;20121;-70
2024/03/16 10:02:23;;;;;;;16.85;3.08;;;;;;;;;;4969401;28;20054;-70
2024/03/16 10:04:50;;;;;;;10.50;2.13;;;;;;;;;;4953187;28;20050;-70
2024/03/16 10:07:16;;;;;;;23.77;2.58;;;;;;;;;;4969629;28;20811;-70
2024/03/16 10:09:53;;;;;;;18.27;2.40;;;;;;;;;;4951585;28;20046;-70
2024/03/16 10:12:23;;;;;;;12.38;2.60;;;;;;;;;;4953618;28;20050;-70
2024/03/16 10:15:08;;;;;;;12.68;2.15;;;;;;;;;;4969486;28;20054;-70
2024/03/16 10:17:36;;;;;;;15.68;2.03;;;;;;;;;;4952309;28;20055;-70
2024/03/16 10:20:07;;;;;;;17.27;2.58;;;;;;;;;;4969784;28;20046;-70
2024/03/16 10:22:34;;;;;;;19.88;1.85;;;;;;;;;;4965442;28;20054;-70
2024/03/16 10:25:00;;;;;;;9.68;1.85;;;;;;;;;;4967921;28;20050;-70
2024/03/16 10:27:27;;;;;;;14.15;2.55;;;;;;;;;;4966754;28;20559;-70
2024/03/16 10:29:55;;;;;;;17.70;2.45;;;;;;;;;;4967203;28;20117;-70
2024/03/16 10:32:21;;;;;;;6.30;1.60;;;;;;;;;;4967174;28;20065;-71
2024/03/16 10:34:48;;;;;;;12.80;1.90;;;;;;;;;;4953334;28;20135;-70
2024/03/16 10:37:14;;;;;;;12.93;2.10;;;;;;;;;;4953629;28;20065;-70
2024/03/16 10:39:40;;;;;;;12.65;2.63;;;;;;;;;;4968130;28;20093;-70
2024/03/16 10:42:15;;;;;;;17.90;2.80;;;;;;;;;;4953988;28;20545;-71
2024/03/16 10:44:46;;;;;;;9.27;1.42;;;;;;;;;;4965732;28;20055;-71
2024/03/16 10:47:14;;;;;;;12.90;1.63;;;;;;;;;;4950034;28;20046;-73
2024/03/16 10:49:40;;;;;;;7.68;1.70;;;;;;;;;;4952734;28;20423;-71
2024/03/16 10:52:11;;;;;;;13.00;1.60;;;;;;;;;;4951599;28;20061;-72
2024/03/16 10:54:38;;;;;;;7.25;1.23;;;;;;;;;;4960835;28;20054;-73
2024/03/16 10:57:07;;;;;;;10.20;2.08;;;;;;;;;;4966710;28;20055;-74
2024/03/16 10:59:33;;;;;;;4.55;1.17;;;;;;;;;;4952104;28;20051;-74
2024/03/16 11:01:59;;;;;;;7.68;1.33;;;;;;;;;;4951171;28;20465;-72
2024/03/16 11:04:26;;;;;;;7.90;2.00;;;;;;;;;;4965428;28;20106;-72
2024/03/16 11:06:54;;;;;;;6.95;1.33;;;;;;;;;;4953407;28;20757;-72
2024/03/16 11:09:27;;;;;;;11.27;1.50;;;;;;;;;;4969764;28;20043;-71
2024/03/16 11:11:55;;;;;;;8.95;1.55;;;;;;;;;;4967954;28;20061;-73
2024/03/16 11:14:22;;;;;;;13.10;1.73;;;;;;;;;;4952027;28;20054;-72
2024/03/16 11:16:51;;;;;;;6.43;1.05;;;;;;;;;;4953103;28;20129;-72
2024/03/16 11:19:20;;;;;;;8.38;1.23;;;;;;;;;;4969545;28;20671;-75
2024/03/16 11:21:53;;;;;;;10.80;1.13;;;;;;;;;;4952107;28;20550;-74
2024/03/16 11:24:20;;;;;;;6.90;1.33;;;;;;;;;;4968149;28;20051;-74
2024/03/16 11:26:49;;;;;;;10.38;1.85;;;;;;;;;;4969259;28;20050;-73
2024/03/16 11:29:16;;;;;;;9.13;1.80;;;;;;;;;;4952481;28;20062;-73
2024/03/16 11:31:48;;;;;;;10.55;1.02;;;;;;;;;;4969922;28;20100;-73
2024/03/16 11:34:15;;;;;;;11.82;2.28;;;;;;;;;;4966693;28;20084;-74
2024/03/16 11:36:42;;;;;;;8.48;1.77;;;;;;;;;;4950713;28;20061;-74
2024/03/16 11:39:12;;;;;;;6.65;1.52;;;;;;;;;;4968435;28;20046;-75
2024/03/16 11:41:42;;;;;;;10.02;2.35;;;;;;;;;;4968894;28;20062;-74
2024/03/16 11:44:15;;;;;;;7.90;1.70;;;;;;;;;;4952586;28;20054;-74
2024/03/16 11:46:54;;;;;;;11.52;2.30;;;;;;;;;;4969774;28;20053;-74
2024/03/16 11:49:21;;;;;;;3.03;1.00;;;;;;;;;;4966226;28;20479;-75
2024/03/16 11:51:53;;;;;;;12.88;1.33;;;;;;;;;;4953758;28;20157;-73
2024/03/16 11:54:19;;;;;;;4.40;1.00;;;;;;;;;;4967919;28;20059;-74
2024/03/16 11:56:47;;;;;;;6.53;1.30;;;;;;;;;;4971247;28;20062;-74
2024/03/16 11:59:15;;;;;;;11.65;1.10;;;;;;;;;;4953961;28;20049;-73
2024/03/16 12:01:44;;;;;;;14.07;1.30;;;;;;;;;;4951890;28;20062;-72
2024/03/16 12:04:15;;;;;;;8.30;1.60;;;;;;;;;;4968631;28;20061;-74
2024/03/16 12:06:42;;;;;;;5.93;1.10;;;;;;;;;;4968503;28;20050;-74
2024/03/16 12:09:15;;;;;;;11.82;1.90;;;9.00;100.00;;;;;;4968508;28;20070;-74
2024/03/16 12:11:48;;;;;;;7.60;0.95;;;9.00;100.00;;;;;;4968949;28;20620;-73
2024/03/16 12:14:18;;;;;;;5.95;1.60;;;9.10;100.00;;;;;;4966974;28;20058;-74
2024/03/16 12:16:47;;;;;;;6.60;1.23;;;9.30;100.00;;;;;;4967306;28;20066;-74
2024/03/16 12:19:16;;;;;;;6.53;1.40;;;9.80;100.00;;;;;;4950630;28;20054;-74
2024/03/16 12:21:47;;;;;;;4.05;1.30;;;11.20;100.00;;;;;;4968191;28;20055;-74
2024/03/16 12:24:17;;;;;;;16.73;1.83;;;12.40;100.00;;;;;;4968414;28;20046;-74
2024/03/16 12:26:46;;;;;;;2.15;1.00;;;12.80;100.00;;;;;;4954253;28;20074;-76
2024/03/16 12:29:17;;;;;;;12.00;1.33;;;14.30;100.00;;;;;;4954185;28;20053;-76
2024/03/16 12:32:10;;;;;;;9.25;1.35;;;14.30;100.00;;;;;;4969538;28;20419;-76
2024/03/16 12:34:36;;;;;;;10.52;1.48;;;16.20;100.00;;;;;;4967943;28;20154;-75
2024/03/16 12:37:02;;;;;;;6.18;1.15;;;17.00;100.00;;;;;;4951911;28;20046;-75
2024/03/16 12:39:30;;;;;;;6.47;1.25;;;15.90;100.00;;;;;;4968636;28;20159;-75
2024/03/16 12:41:57;;;;;;;5.07;1.42;;;15.70;100.00;;;;;;4967933;28;20397;-75
2024/03/16 12:44:23;;;;;;;6.68;1.40;;;15.90;97.80;;;;;;4951440;28;20380;-72
2024/03/16 12:46:51;;;;;;;8.75;1.20;;;16.60;100.00;;;;;;4967612;28;20047;-72
2024/03/16 12:49:20;;;;;;;13.02;1.48;;;17.60;92.40;;;;;;4954298;28;20063;-72
2024/03/16 12:51:47;;;;;;;5.72;1.45;;;17.70;68.70;;;;;;4957453;28;20058;-70
2024/03/16 12:54:13;;;;;;;9.18;1.13;;;16.30;63.00;;;;;;4955832;28;20462;-71
2024/03/16 12:56:47;;;;;;;7.40;1.23;;;14.30;65.20;;;;;;4956841;28;20055;-71